Bissell, Connecticut
Current Conditions -  °F | °C
As of 2:53 PM on Monday 24 Nov 2014 (Local Time) from KHFD Reporting Station
Overcast Overcast  
Wind Chill: 62°   Ceiling: 900
Heat Index: 62°   Visibility: 10mi
Dew Point: 59°   Wind: 12mph
Humidity: 90%   Direction: 170°S
Pressure: 29.59"   Gusts: 21mph
Location:  41.8353°N, 72.5722°W
Report Text: KHFD 241953Z 17010G18KT 10SM OVC009 17/15 A2959 RMK AO2 SLP018 T01670150
Loading
Personal Weather Stations






























Interactive Weather Map New forecast layout! Learn more

10-Day Weather Forecast

Advertisements
Track Severe Weather on mobile